sensor_id;sensor_type;location;lat;lon;timestamp;P1;durP1;ratioP1;P2;durP2;ratioP2
71174;SDS011;58876;51.994;4.472;2022-10-31T00:02:17;43.49;;;43.49;;
71174;SDS011;58876;51.994;4.472;2022-10-31T00:04:42;3.61;;;3.61;;
71174;SDS011;58876;51.994;4.472;2022-10-31T00:07:08;4.11;;;4.11;;
71174;SDS011;58876;51.994;4.472;2022-10-31T00:09:33;4.07;;;4.07;;
71174;SDS011;58876;51.994;4.472;2022-10-31T00:11:58;5.20;;;5.20;;
71174;SDS011;58876;51.994;4.472;2022-10-31T00:14:24;6.92;;;6.92;;
71174;SDS011;58876;51.994;4.472;2022-10-31T00:16:49;8.05;;;8.05;;
71174;SDS011;58876;51.994;4.472;2022-10-31T00:19:15;10.18;;;10.18;;
71174;SDS011;58876;51.994;4.472;2022-10-31T00:21:40;67.99;;;67.99;;
71174;SDS011;58876;51.994;4.472;2022-10-31T00:24:06;178.81;;;178.81;;
71174;SDS011;58876;51.994;4.472;2022-10-31T00:26:32;129.24;;;129.24;;
71174;SDS011;58876;51.994;4.472;2022-10-31T00:28:59;57.42;;;57.42;;
71174;SDS011;58876;51.994;4.472;2022-10-31T00:31:25;51.39;;;51.39;;
71174;SDS011;58876;51.994;4.472;2022-10-31T00:33:50;97.90;;;97.90;;
71174;SDS011;58876;51.994;4.472;2022-10-31T00:36:17;100.28;;;100.28;;
71174;SDS011;58876;51.994;4.472;2022-10-31T00:38:44;162.62;;;162.62;;
71174;SDS011;58876;51.994;4.472;2022-10-31T00:41:11;89.52;;;89.52;;
71174;SDS011;58876;51.994;4.472;2022-10-31T00:43:40;69.96;;;69.96;;
71174;SDS011;58876;51.994;4.472;2022-10-31T00:46:07;119.81;;;119.81;;
71174;SDS011;58876;51.994;4.472;2022-10-31T00:48:33;149.83;;;149.83;;
71174;SDS011;58876;51.994;4.472;2022-10-31T00:50:58;206.39;;;206.39;;
71174;SDS011;58876;51.994;4.472;2022-10-31T00:53:24;97.47;;;97.47;;
71174;SDS011;58876;51.994;4.472;2022-10-31T00:55:49;106.09;;;106.09;;
71174;SDS011;58876;51.994;4.472;2022-10-31T00:58:15;171.19;;;171.19;;
71174;SDS011;58876;51.994;4.472;2022-10-31T01:00:40;125.36;;;125.36;;
71174;SDS011;58876;51.994;4.472;2022-10-31T01:03:05;112.28;;;112.28;;
71174;SDS011;58876;51.994;4.472;2022-10-31T01:05:31;68.95;;;68.95;;
71174;SDS011;58876;51.994;4.472;2022-10-31T01:07:57;32.39;;;32.39;;
71174;SDS011;58876;51.994;4.472;2022-10-31T01:10:23;24.24;;;24.24;;
71174;SDS011;58876;51.994;4.472;2022-10-31T01:12:49;16.89;;;16.89;;
71174;SDS011;58876;51.994;4.472;2022-10-31T01:15:16;18.10;;;18.10;;
71174;SDS011;58876;51.994;4.472;2022-10-31T01:17:44;25.74;;;25.74;;
71174;SDS011;58876;51.994;4.472;2022-10-31T01:20:10;24.61;;;24.61;;
71174;SDS011;58876;51.994;4.472;2022-10-31T01:22:38;17.57;;;17.57;;
71174;SDS011;58876;51.994;4.472;2022-10-31T01:25:05;14.33;;;14.33;;
71174;SDS011;58876;51.994;4.472;2022-10-31T01:27:31;17.73;;;17.73;;
71174;SDS011;58876;51.994;4.472;2022-10-31T01:29:57;28.22;;;28.22;;
71174;SDS011;58876;51.994;4.472;2022-10-31T01:32:22;18.48;;;18.48;;
71174;SDS011;58876;51.994;4.472;2022-10-31T01:34:48;21.02;;;21.02;;
71174;SDS011;58876;51.994;4.472;2022-10-31T01:37:13;20.03;;;20.03;;
71174;SDS011;58876;51.994;4.472;2022-10-31T01:39:39;23.67;;;23.67;;
71174;SDS011;58876;51.994;4.472;2022-10-31T01:42:04;21.39;;;21.39;;
71174;SDS011;58876;51.994;4.472;2022-10-31T01:46:57;30.65;;;30.65;;
71174;SDS011;58876;51.994;4.472;2022-10-31T01:49:42;46.21;;;46.21;;
71174;SDS011;58876;51.994;4.472;2022-10-31T01:54:58;63.54;;;63.54;;
71174;SDS011;58876;51.994;4.472;2022-10-31T01:57:26;25.27;;;25.27;;
71174;SDS011;58876;51.994;4.472;2022-10-31T01:59:57;20.54;;;20.54;;
71174;SDS011;58876;51.994;4.472;2022-10-31T02:02:27;23.85;;;23.85;;
71174;SDS011;58876;51.994;4.472;2022-10-31T02:04:55;24.11;;;24.11;;
71174;SDS011;58876;51.994;4.472;2022-10-31T02:07:27;35.97;;;35.97;;
71174;SDS011;58876;51.994;4.472;2022-10-31T02:10:03;51.28;;;51.28;;
71174;SDS011;58876;51.994;4.472;2022-10-31T02:12:30;56.94;;;56.94;;
71174;SDS011;58876;51.994;4.472;2022-10-31T02:14:57;70.35;;;70.35;;
71174;SDS011;58876;51.994;4.472;2022-10-31T02:17:25;160.47;;;160.47;;
71174;SDS011;58876;51.994;4.472;2022-10-31T02:20:12;314.99;;;314.99;;
71174;SDS011;58876;51.994;4.472;2022-10-31T02:25:29;263.64;;;263.64;;
71174;SDS011;58876;51.994;4.472;2022-10-31T02:31:12;304.38;;;304.38;;
71174;SDS011;58876;51.994;4.472;2022-10-31T02:36:52;335.78;;;335.78;;
71174;SDS011;58876;51.994;4.472;2022-10-31T02:39:28;492.84;;;492.84;;
71174;SDS011;58876;51.994;4.472;2022-10-31T02:47:16;748.39;;;748.39;;
71174;SDS011;58876;51.994;4.472;2022-10-31T02:52:25;769.15;;;769.15;;
71174;SDS011;58876;51.994;4.472;2022-10-31T02:54:55;891.43;;;891.43;;
71174;SDS011;58876;51.994;4.472;2022-10-31T02:57:31;1136.83;;;1136.83;;
71174;SDS011;58876;51.994;4.472;2022-10-31T03:00:03;1006.49;;;1006.49;;
71174;SDS011;58876;51.994;4.472;2022-10-31T03:13:26;1174.33;;;1174.33;;
71174;SDS011;58876;51.994;4.472;2022-10-31T03:16:18;1013.90;;;1013.90;;
71174;SDS011;58876;51.994;4.472;2022-10-31T03:19:11;934.79;;;934.79;;
71174;SDS011;58876;51.994;4.472;2022-10-31T03:21:55;1015.98;;;1015.98;;
71174;SDS011;58876;51.994;4.472;2022-10-31T03:24:34;783.76;;;783.76;;
71174;SDS011;58876;51.994;4.472;2022-10-31T03:27:03;859.95;;;859.95;;
71174;SDS011;58876;51.994;4.472;2022-10-31T03:29:35;755.73;;;755.73;;
71174;SDS011;58876;51.994;4.472;2022-10-31T03:32:08;614.95;;;614.95;;
71174;SDS011;58876;51.994;4.472;2022-10-31T03:34:49;598.98;;;598.98;;
71174;SDS011;58876;51.994;4.472;2022-10-31T03:37:18;512.34;;;512.34;;
71174;SDS011;58876;51.994;4.472;2022-10-31T03:39:48;610.49;;;610.49;;
71174;SDS011;58876;51.994;4.472;2022-10-31T03:42:16;705.16;;;705.16;;
71174;SDS011;58876;51.994;4.472;2022-10-31T03:44:51;753.26;;;753.26;;
71174;SDS011;58876;51.994;4.472;2022-10-31T03:47:40;1118.94;;;1118.94;;
71174;SDS011;58876;51.994;4.472;2022-10-31T03:50:09;1381.17;;;1381.17;;
71174;SDS011;58876;51.994;4.472;2022-10-31T03:55:14;1335.86;;;1335.86;;
71174;SDS011;58876;51.994;4.472;2022-10-31T03:57:50;1395.24;;;1395.24;;
71174;SDS011;58876;51.994;4.472;2022-10-31T04:00:48;1341.36;;;1341.36;;
71174;SDS011;58876;51.994;4.472;2022-10-31T04:03:19;1199.14;;;1199.14;;
71174;SDS011;58876;51.994;4.472;2022-10-31T04:05:54;1107.55;;;1107.55;;
71174;SDS011;58876;51.994;4.472;2022-10-31T04:08:24;1107.08;;;1107.08;;
71174;SDS011;58876;51.994;4.472;2022-10-31T04:10:55;1148.79;;;1148.79;;
71174;SDS011;58876;51.994;4.472;2022-10-31T04:13:26;1185.68;;;1185.68;;
71174;SDS011;58876;51.994;4.472;2022-10-31T04:15:55;1193.96;;;1193.96;;
71174;SDS011;58876;51.994;4.472;2022-10-31T04:18:24;1204.72;;;1204.72;;
71174;SDS011;58876;51.994;4.472;2022-10-31T04:20:59;1306.14;;;1306.14;;
71174;SDS011;58876;51.994;4.472;2022-10-31T04:23:27;1308.57;;;1308.57;;
71174;SDS011;58876;51.994;4.472;2022-10-31T04:25:53;1327.45;;;1327.45;;
71174;SDS011;58876;51.994;4.472;2022-10-31T04:28:18;1356.53;;;1356.53;;
71174;SDS011;58876;51.994;4.472;2022-10-31T04:30:44;1320.95;;;1320.95;;
71174;SDS011;58876;51.994;4.472;2022-10-31T04:33:09;1349.82;;;1349.82;;
71174;SDS011;58876;51.994;4.472;2022-10-31T04:35:35;1373.04;;;1373.04;;
71174;SDS011;58876;51.994;4.472;2022-10-31T04:38:00;1478.39;;;1478.39;;
71174;SDS011;58876;51.994;4.472;2022-10-31T04:40:26;1513.61;;;1513.61;;
71174;SDS011;58876;51.994;4.472;2022-10-31T04:42:51;1533.07;;;1533.07;;
71174;SDS011;58876;51.994;4.472;2022-10-31T04:45:17;1469.96;;;1469.96;;
71174;SDS011;58876;51.994;4.472;2022-10-31T04:47:42;1557.56;;;1557.56;;
71174;SDS011;58876;51.994;4.472;2022-10-31T04:50:08;1669.36;;;1667.86;;
71174;SDS011;58876;51.994;4.472;2022-10-31T04:52:40;1639.93;;;1639.93;;
71174;SDS011;58876;51.994;4.472;2022-10-31T04:55:07;1626.51;;;1625.60;;
71174;SDS011;58876;51.994;4.472;2022-10-31T04:57:47;1949.01;;;1933.51;;
71174;SDS011;58876;51.994;4.472;2022-10-31T05:00:15;2071.02;;;2051.63;;
71174;SDS011;58876;51.994;4.472;2022-10-31T05:02:46;1999.02;;;1995.51;;
71174;SDS011;58876;51.994;4.472;2022-10-31T05:05:13;1544.64;;;1541.12;;
71174;SDS011;58876;51.994;4.472;2022-10-31T05:07:41;1537.75;;;1537.63;;
71174;SDS011;58876;51.994;4.472;2022-10-31T05:10:09;1780.95;;;1779.29;;
71174;SDS011;58876;51.994;4.472;2022-10-31T05:12:37;1824.93;;;1817.30;;
71174;SDS011;58876;51.994;4.472;2022-10-31T05:15:03;1807.95;;;1804.08;;
71174;SDS011;58876;51.994;4.472;2022-10-31T05:17:30;1859.06;;;1854.34;;
71174;SDS011;58876;51.994;4.472;2022-10-31T05:19:56;1359.91;;;1359.91;;
71174;SDS011;58876;51.994;4.472;2022-10-31T05:22:22;1383.64;;;1383.64;;
71174;SDS011;58876;51.994;4.472;2022-10-31T05:24:49;1408.25;;;1408.25;;
71174;SDS011;58876;51.994;4.472;2022-10-31T05:27:14;1397.41;;;1397.41;;
71174;SDS011;58876;51.994;4.472;2022-10-31T05:29:40;1375.85;;;1375.85;;
71174;SDS011;58876;51.994;4.472;2022-10-31T05:32:05;1381.84;;;1381.84;;
71174;SDS011;58876;51.994;4.472;2022-10-31T05:34:31;1390.70;;;1390.70;;
71174;SDS011;58876;51.994;4.472;2022-10-31T05:36:56;1389.23;;;1389.23;;
71174;SDS011;58876;51.994;4.472;2022-10-31T05:39:21;1417.83;;;1417.25;;
71174;SDS011;58876;51.994;4.472;2022-10-31T05:41:47;1454.43;;;1454.36;;
71174;SDS011;58876;51.994;4.472;2022-10-31T05:44:12;1595.07;;;1594.44;;
71174;SDS011;58876;51.994;4.472;2022-10-31T05:46:38;1736.41;;;1730.68;;
71174;SDS011;58876;51.994;4.472;2022-10-31T05:49:03;1578.37;;;1578.26;;
71174;SDS011;58876;51.994;4.472;2022-10-31T05:51:29;1466.14;;;1466.14;;
71174;SDS011;58876;51.994;4.472;2022-10-31T05:53:54;1459.35;;;1459.35;;
71174;SDS011;58876;51.994;4.472;2022-10-31T05:56:19;1558.41;;;1558.27;;
71174;SDS011;58876;51.994;4.472;2022-10-31T05:58:45;1631.25;;;1628.56;;
71174;SDS011;58876;51.994;4.472;2022-10-31T06:01:10;1502.94;;;1502.82;;
71174;SDS011;58876;51.994;4.472;2022-10-31T06:03:36;1398.22;;;1398.22;;
71174;SDS011;58876;51.994;4.472;2022-10-31T06:06:02;1608.67;;;1608.67;;
71174;SDS011;58876;51.994;4.472;2022-10-31T06:08:28;1907.75;;;1889.91;;
71174;SDS011;58876;51.994;4.472;2022-10-31T06:10:53;1937.77;;;1908.57;;
71174;SDS011;58876;51.994;4.472;2022-10-31T06:13:19;1909.92;;;1890.83;;
71174;SDS011;58876;51.994;4.472;2022-10-31T06:15:44;1829.81;;;1823.20;;
71174;SDS011;58876;51.994;4.472;2022-10-31T06:18:11;1498.54;;;1498.54;;
71174;SDS011;58876;51.994;4.472;2022-10-31T06:20:36;1734.46;;;1730.87;;
71174;SDS011;58876;51.994;4.472;2022-10-31T06:23:02;1828.31;;;1824.64;;
71174;SDS011;58876;51.994;4.472;2022-10-31T06:25:28;1750.07;;;1746.88;;
71174;SDS011;58876;51.994;4.472;2022-10-31T06:27:54;1907.58;;;1878.74;;
71174;SDS011;58876;51.994;4.472;2022-10-31T06:30:19;1910.06;;;1868.81;;
71174;SDS011;58876;51.994;4.472;2022-10-31T06:32:45;1878.29;;;1861.79;;
71174;SDS011;58876;51.994;4.472;2022-10-31T06:35:11;1843.36;;;1838.39;;
71174;SDS011;58876;51.994;4.472;2022-10-31T06:37:36;1538.51;;;1536.77;;
71174;SDS011;58876;51.994;4.472;2022-10-31T06:40:02;1651.67;;;1640.32;;
71174;SDS011;58876;51.994;4.472;2022-10-31T06:42:28;1882.96;;;1820.53;;
71174;SDS011;58876;51.994;4.472;2022-10-31T06:44:59;1680.74;;;1672.71;;
71174;SDS011;58876;51.994;4.472;2022-10-31T06:47:24;1860.76;;;1826.33;;
71174;SDS011;58876;51.994;4.472;2022-10-31T06:49:50;1806.53;;;1784.32;;
71174;SDS011;58876;51.994;4.472;2022-10-31T06:52:15;1712.08;;;1711.10;;
71174;SDS011;58876;51.994;4.472;2022-10-31T06:54:41;1566.82;;;1566.82;;
71174;SDS011;58876;51.994;4.472;2022-10-31T06:57:06;1732.38;;;1726.70;;
71174;SDS011;58876;51.994;4.472;2022-10-31T06:59:32;1802.32;;;1789.18;;
71174;SDS011;58876;51.994;4.472;2022-10-31T07:01:57;1725.67;;;1722.22;;
71174;SDS011;58876;51.994;4.472;2022-10-31T07:04:23;1703.39;;;1695.53;;
71174;SDS011;58876;51.994;4.472;2022-10-31T07:06:52;1678.74;;;1668.88;;
71174;SDS011;58876;51.994;4.472;2022-10-31T07:09:18;1613.37;;;1611.10;;
71174;SDS011;58876;51.994;4.472;2022-10-31T07:11:44;1614.57;;;1610.86;;
71174;SDS011;58876;51.994;4.472;2022-10-31T07:14:09;1746.25;;;1738.51;;
71174;SDS011;58876;51.994;4.472;2022-10-31T07:16:34;1752.62;;;1744.86;;
71174;SDS011;58876;51.994;4.472;2022-10-31T07:19:00;1758.07;;;1757.71;;
71174;SDS011;58876;51.994;4.472;2022-10-31T07:21:25;1371.84;;;1371.84;;
71174;SDS011;58876;51.994;4.472;2022-10-31T07:23:51;1189.57;;;1189.57;;
71174;SDS011;58876;51.994;4.472;2022-10-31T07:26:18;897.23;;;897.23;;
71174;SDS011;58876;51.994;4.472;2022-10-31T07:28:45;668.66;;;668.66;;
71174;SDS011;58876;51.994;4.472;2022-10-31T07:31:12;444.75;;;444.75;;
71174;SDS011;58876;51.994;4.472;2022-10-31T07:33:37;327.79;;;327.79;;
71174;SDS011;58876;51.994;4.472;2022-10-31T07:36:03;198.37;;;198.37;;
71174;SDS011;58876;51.994;4.472;2022-10-31T07:38:28;138.00;;;138.00;;
71174;SDS011;58876;51.994;4.472;2022-10-31T07:40:54;95.65;;;95.65;;
71174;SDS011;58876;51.994;4.472;2022-10-31T07:43:19;95.84;;;95.84;;
71174;SDS011;58876;51.994;4.472;2022-10-31T07:45:51;101.46;;;101.46;;
71174;SDS011;58876;51.994;4.472;2022-10-31T07:48:17;71.08;;;71.08;;
71174;SDS011;58876;51.994;4.472;2022-10-31T07:50:43;125.53;;;125.53;;
71174;SDS011;58876;51.994;4.472;2022-10-31T07:53:10;170.72;;;170.72;;
71174;SDS011;58876;51.994;4.472;2022-10-31T07:55:36;183.27;;;183.27;;
71174;SDS011;58876;51.994;4.472;2022-10-31T07:58:03;263.77;;;263.77;;
71174;SDS011;58876;51.994;4.472;2022-10-31T08:00:31;363.55;;;363.55;;
71174;SDS011;58876;51.994;4.472;2022-10-31T08:03:00;331.10;;;331.10;;
71174;SDS011;58876;51.994;4.472;2022-10-31T08:05:27;144.41;;;144.41;;
71174;SDS011;58876;51.994;4.472;2022-10-31T08:07:53;460.59;;;460.59;;
71174;SDS011;58876;51.994;4.472;2022-10-31T08:10:19;333.41;;;333.41;;
71174;SDS011;58876;51.994;4.472;2022-10-31T08:12:45;92.38;;;92.38;;
71174;SDS011;58876;51.994;4.472;2022-10-31T08:15:11;65.58;;;65.58;;
71174;SDS011;58876;51.994;4.472;2022-10-31T08:17:36;31.47;;;31.47;;
71174;SDS011;58876;51.994;4.472;2022-10-31T08:20:03;22.28;;;22.28;;
71174;SDS011;58876;51.994;4.472;2022-10-31T08:22:30;20.31;;;20.31;;
71174;SDS011;58876;51.994;4.472;2022-10-31T08:24:56;21.35;;;21.30;;
71174;SDS011;58876;51.994;4.472;2022-10-31T08:27:22;20.67;;;20.67;;
71174;SDS011;58876;51.994;4.472;2022-10-31T08:29:47;20.77;;;20.75;;
71174;SDS011;58876;51.994;4.472;2022-10-31T08:32:13;20.89;;;20.89;;
71174;SDS011;58876;51.994;4.472;2022-10-31T08:34:39;20.87;;;20.83;;
71174;SDS011;58876;51.994;4.472;2022-10-31T08:37:04;20.43;;;20.41;;
71174;SDS011;58876;51.994;4.472;2022-10-31T08:39:29;24.75;;;24.75;;
71174;SDS011;58876;51.994;4.472;2022-10-31T08:41:55;74.80;;;74.80;;
71174;SDS011;58876;51.994;4.472;2022-10-31T08:44:20;60.53;;;60.53;;
71174;SDS011;58876;51.994;4.472;2022-10-31T08:46:46;22.34;;;22.34;;
71174;SDS011;58876;51.994;4.472;2022-10-31T08:49:11;20.79;;;20.79;;
71174;SDS011;58876;51.994;4.472;2022-10-31T08:51:37;20.12;;;20.12;;
71174;SDS011;58876;51.994;4.472;2022-10-31T08:54:02;20.85;;;20.85;;
71174;SDS011;58876;51.994;4.472;2022-10-31T08:56:28;21.34;;;21.34;;
71174;SDS011;58876;51.994;4.472;2022-10-31T08:58:53;21.90;;;21.90;;
71174;SDS011;58876;51.994;4.472;2022-10-31T09:01:19;22.86;;;22.86;;
71174;SDS011;58876;51.994;4.472;2022-10-31T09:03:44;20.75;;;20.75;;
71174;SDS011;58876;51.994;4.472;2022-10-31T09:06:11;22.81;;;22.81;;
71174;SDS011;58876;51.994;4.472;2022-10-31T09:08:36;21.66;;;21.66;;
71174;SDS011;58876;51.994;4.472;2022-10-31T09:11:02;25.15;;;25.15;;
71174;SDS011;58876;51.994;4.472;2022-10-31T09:13:28;38.92;;;38.92;;
71174;SDS011;58876;51.994;4.472;2022-10-31T09:15:55;77.51;;;77.51;;
71174;SDS011;58876;51.994;4.472;2022-10-31T09:18:22;89.20;;;89.20;;
71174;SDS011;58876;51.994;4.472;2022-10-31T09:20:48;423.78;;;423.78;;
71174;SDS011;58876;51.994;4.472;2022-10-31T09:23:19;463.53;;;463.53;;
71174;SDS011;58876;51.994;4.472;2022-10-31T09:25:47;207.15;;;207.15;;
71174;SDS011;58876;51.994;4.472;2022-10-31T09:28:16;265.21;;;265.21;;
71174;SDS011;58876;51.994;4.472;2022-10-31T09:30:45;213.33;;;213.33;;
71174;SDS011;58876;51.994;4.472;2022-10-31T09:33:12;376.64;;;376.64;;
71174;SDS011;58876;51.994;4.472;2022-10-31T09:35:39;1731.34;;;1731.34;;
71174;SDS011;58876;51.994;4.472;2022-10-31T09:38:13;519.05;;;519.05;;
71174;SDS011;58876;51.994;4.472;2022-10-31T09:40:41;407.18;;;407.18;;
71174;SDS011;58876;51.994;4.472;2022-10-31T09:46:13;545.16;;;545.16;;
71174;SDS011;58876;51.994;4.472;2022-10-31T09:51:28;522.03;;;522.03;;
71174;SDS011;58876;51.994;4.472;2022-10-31T09:56:46;538.73;;;538.73;;
71174;SDS011;58876;51.994;4.472;2022-10-31T09:59:24;528.76;;;528.76;;
71174;SDS011;58876;51.994;4.472;2022-10-31T10:04:47;566.28;;;566.28;;
71174;SDS011;58876;51.994;4.472;2022-10-31T10:09:56;578.46;;;578.46;;
71174;SDS011;58876;51.994;4.472;2022-10-31T10:15:26;509.55;;;509.55;;
71174;SDS011;58876;51.994;4.472;2022-10-31T10:18:37;531.22;;;531.22;;
71174;SDS011;58876;51.994;4.472;2022-10-31T10:26:43;467.83;;;467.83;;
71174;SDS011;58876;51.994;4.472;2022-10-31T10:29:40;411.70;;;411.70;;
71174;SDS011;58876;51.994;4.472;2022-10-31T10:32:25;286.84;;;286.84;;
71174;SDS011;58876;51.994;4.472;2022-10-31T10:34:55;257.51;;;257.51;;
71174;SDS011;58876;51.994;4.472;2022-10-31T10:37:29;94.88;;;94.88;;
71174;SDS011;58876;51.994;4.472;2022-10-31T10:40:12;86.31;;;86.31;;
71174;SDS011;58876;51.994;4.472;2022-10-31T10:42:50;63.71;;;63.71;;
71174;SDS011;58876;51.994;4.472;2022-10-31T10:45:41;21.49;;;21.49;;
71174;SDS011;58876;51.994;4.472;2022-10-31T10:51:01;68.00;;;68.00;;
71174;SDS011;58876;51.994;4.472;2022-10-31T10:53:39;120.98;;;120.98;;
71174;SDS011;58876;51.994;4.472;2022-10-31T10:59:15;356.18;;;356.18;;
71174;SDS011;58876;51.994;4.472;2022-10-31T11:01:45;404.57;;;404.57;;
71174;SDS011;58876;51.994;4.472;2022-10-31T11:04:38;285.90;;;285.90;;
71174;SDS011;58876;51.994;4.472;2022-10-31T11:07:03;190.40;;;190.40;;
71174;SDS011;58876;51.994;4.472;2022-10-31T11:09:31;276.45;;;276.45;;
71174;SDS011;58876;51.994;4.472;2022-10-31T11:11:57;361.05;;;361.05;;
71174;SDS011;58876;51.994;4.472;2022-10-31T11:14:24;173.24;;;173.24;;
71174;SDS011;58876;51.994;4.472;2022-10-31T11:16:54;167.43;;;167.43;;
71174;SDS011;58876;51.994;4.472;2022-10-31T11:19:35;272.74;;;272.74;;
71174;SDS011;58876;51.994;4.472;2022-10-31T11:22:08;261.40;;;261.40;;
71174;SDS011;58876;51.994;4.472;2022-10-31T11:24:43;80.16;;;80.16;;
71174;SDS011;58876;51.994;4.472;2022-10-31T11:27:11;19.28;;;19.28;;
71174;SDS011;58876;51.994;4.472;2022-10-31T11:29:44;19.33;;;19.33;;
71174;SDS011;58876;51.994;4.472;2022-10-31T11:32:16;27.80;;;27.80;;
71174;SDS011;58876;51.994;4.472;2022-10-31T11:34:46;29.62;;;29.62;;
71174;SDS011;58876;51.994;4.472;2022-10-31T11:37:26;92.23;;;92.23;;
71174;SDS011;58876;51.994;4.472;2022-10-31T11:40:04;157.91;;;157.91;;
71174;SDS011;58876;51.994;4.472;2022-10-31T11:42:35;272.61;;;272.61;;
71174;SDS011;58876;51.994;4.472;2022-10-31T11:45:07;337.21;;;337.21;;
71174;SDS011;58876;51.994;4.472;2022-10-31T11:47:40;294.34;;;294.34;;
71174;SDS011;58876;51.994;4.472;2022-10-31T11:50:11;257.27;;;257.27;;
71174;SDS011;58876;51.994;4.472;2022-10-31T11:52:47;223.21;;;223.21;;
71174;SDS011;58876;51.994;4.472;2022-10-31T11:55:34;198.66;;;198.66;;
71174;SDS011;58876;51.994;4.472;2022-10-31T11:58:02;77.22;;;77.22;;
71174;SDS011;58876;51.994;4.472;2022-10-31T12:00:30;112.67;;;112.67;;
71174;SDS011;58876;51.994;4.472;2022-10-31T12:06:18;130.52;;;130.52;;
71174;SDS011;58876;51.994;4.472;2022-10-31T12:08:48;64.47;;;64.47;;
71174;SDS011;58876;51.994;4.472;2022-10-31T12:16:42;20.15;;;20.07;;
71174;SDS011;58876;51.994;4.472;2022-10-31T12:22:44;20.68;;;20.56;;
71174;SDS011;58876;51.994;4.472;2022-10-31T12:25:38;19.45;;;19.41;;
71174;SDS011;58876;51.994;4.472;2022-10-31T12:28:35;20.25;;;20.21;;
71174;SDS011;58876;51.994;4.472;2022-10-31T12:56:55;28.92;;;28.92;;
71174;SDS011;58876;51.994;4.472;2022-10-31T12:59:34;25.36;;;25.36;;
71174;SDS011;58876;51.994;4.472;2022-10-31T13:05:05;35.88;;;35.88;;
71174;SDS011;58876;51.994;4.472;2022-10-31T13:08:03;26.26;;;26.26;;
71174;SDS011;58876;51.994;4.472;2022-10-31T13:16:27;44.14;;;44.14;;
71174;SDS011;58876;51.994;4.472;2022-10-31T13:21:31;61.05;;;61.05;;
71174;SDS011;58876;51.994;4.472;2022-10-31T13:24:04;68.17;;;68.17;;
71174;SDS011;58876;51.994;4.472;2022-10-31T13:26:43;30.08;;;30.08;;
71174;SDS011;58876;51.994;4.472;2022-10-31T13:29:21;29.11;;;29.11;;
71174;SDS011;58876;51.994;4.472;2022-10-31T13:31:56;24.86;;;24.78;;
71174;SDS011;58876;51.994;4.472;2022-10-31T13:34:29;27.31;;;27.31;;
71174;SDS011;58876;51.994;4.472;2022-10-31T13:39:52;25.00;;;24.91;;
71174;SDS011;58876;51.994;4.472;2022-10-31T13:45:32;26.82;;;26.79;;
71174;SDS011;58876;51.994;4.472;2022-10-31T13:50:42;31.48;;;31.48;;
71174;SDS011;58876;51.994;4.472;2022-10-31T13:53:21;33.48;;;33.48;;
71174;SDS011;58876;51.994;4.472;2022-10-31T13:55:49;42.03;;;42.03;;
71174;SDS011;58876;51.994;4.472;2022-10-31T13:58:30;34.94;;;34.94;;
71174;SDS011;58876;51.994;4.472;2022-10-31T14:00:57;35.75;;;35.75;;
71174;SDS011;58876;51.994;4.472;2022-10-31T14:03:24;30.09;;;29.99;;
71174;SDS011;58876;51.994;4.472;2022-10-31T14:05:53;60.16;;;60.16;;
71174;SDS011;58876;51.994;4.472;2022-10-31T14:08:21;96.11;;;96.11;;
71174;SDS011;58876;51.994;4.472;2022-10-31T14:10:50;212.49;;;212.49;;
71174;SDS011;58876;51.994;4.472;2022-10-31T14:13:24;244.59;;;244.59;;
71174;SDS011;58876;51.994;4.472;2022-10-31T14:16:00;86.78;;;86.78;;
71174;SDS011;58876;51.994;4.472;2022-10-31T14:18:36;44.99;;;44.99;;
71174;SDS011;58876;51.994;4.472;2022-10-31T14:23:50;64.55;;;64.55;;
71174;SDS011;58876;51.994;4.472;2022-10-31T14:28:53;192.36;;;192.36;;
71174;SDS011;58876;51.994;4.472;2022-10-31T14:36:53;191.73;;;191.73;;
71174;SDS011;58876;51.994;4.472;2022-10-31T14:39:39;297.71;;;297.71;;
71174;SDS011;58876;51.994;4.472;2022-10-31T14:45:25;154.98;;;154.98;;
71174;SDS011;58876;51.994;4.472;2022-10-31T14:53:36;390.23;;;390.23;;
71174;SDS011;58876;51.994;4.472;2022-10-31T14:56:14;280.38;;;280.38;;
71174;SDS011;58876;51.994;4.472;2022-10-31T14:58:52;364.75;;;364.75;;
71174;SDS011;58876;51.994;4.472;2022-10-31T15:01:26;259.59;;;259.59;;
71174;SDS011;58876;51.994;4.472;2022-10-31T15:03:55;237.55;;;237.55;;
71174;SDS011;58876;51.994;4.472;2022-10-31T15:07:18;261.99;;;261.99;;
71174;SDS011;58876;51.994;4.472;2022-10-31T15:09:31;456.38;;;456.38;;
71174;SDS011;58876;51.994;4.472;2022-10-31T15:11:59;555.39;;;555.39;;
71174;SDS011;58876;51.994;4.472;2022-10-31T15:14:29;646.05;;;646.05;;
71174;SDS011;58876;51.994;4.472;2022-10-31T15:17:01;585.62;;;585.62;;
71174;SDS011;58876;51.994;4.472;2022-10-31T15:19:29;461.53;;;461.53;;
71174;SDS011;58876;51.994;4.472;2022-10-31T15:21:57;427.45;;;427.45;;
71174;SDS011;58876;51.994;4.472;2022-10-31T15:24:27;393.36;;;393.36;;
71174;SDS011;58876;51.994;4.472;2022-10-31T15:26:59;490.93;;;490.93;;
71174;SDS011;58876;51.994;4.472;2022-10-31T15:29:25;469.79;;;469.79;;
71174;SDS011;58876;51.994;4.472;2022-10-31T15:31:56;439.21;;;439.21;;
71174;SDS011;58876;51.994;4.472;2022-10-31T15:37:04;355.15;;;355.15;;
71174;SDS011;58876;51.994;4.472;2022-10-31T15:39:35;373.84;;;373.84;;
71174;SDS011;58876;51.994;4.472;2022-10-31T15:42:01;460.97;;;460.97;;
71174;SDS011;58876;51.994;4.472;2022-10-31T15:44:34;443.73;;;443.73;;
71174;SDS011;58876;51.994;4.472;2022-10-31T15:47:11;457.24;;;457.24;;
71174;SDS011;58876;51.994;4.472;2022-10-31T15:57:55;442.80;;;442.80;;
71174;SDS011;58876;51.994;4.472;2022-10-31T16:00:28;441.89;;;441.89;;
71174;SDS011;58876;51.994;4.472;2022-10-31T16:03:03;464.03;;;464.03;;
71174;SDS011;58876;51.994;4.472;2022-10-31T16:13:36;398.39;;;398.39;;
71174;SDS011;58876;51.994;4.472;2022-10-31T16:16:17;390.54;;;390.54;;
71174;SDS011;58876;51.994;4.472;2022-10-31T16:18:45;410.52;;;410.52;;
71174;SDS011;58876;51.994;4.472;2022-10-31T16:21:12;385.24;;;385.24;;
71174;SDS011;58876;51.994;4.472;2022-10-31T16:23:38;402.53;;;402.53;;
71174;SDS011;58876;51.994;4.472;2022-10-31T16:26:13;390.95;;;390.95;;
71174;SDS011;58876;51.994;4.472;2022-10-31T16:28:53;345.21;;;345.21;;
71174;SDS011;58876;51.994;4.472;2022-10-31T16:31:28;335.85;;;335.85;;
71174;SDS011;58876;51.994;4.472;2022-10-31T16:34:01;321.04;;;321.04;;
71174;SDS011;58876;51.994;4.472;2022-10-31T16:36:37;322.92;;;322.92;;
71174;SDS011;58876;51.994;4.472;2022-10-31T16:39:04;335.75;;;335.75;;
71174;SDS011;58876;51.994;4.472;2022-10-31T16:41:31;328.99;;;328.99;;
71174;SDS011;58876;51.994;4.472;2022-10-31T16:44:04;292.32;;;292.32;;
71174;SDS011;58876;51.994;4.472;2022-10-31T16:46:39;306.59;;;306.59;;
71174;SDS011;58876;51.994;4.472;2022-10-31T16:49:04;315.78;;;315.78;;
71174;SDS011;58876;51.994;4.472;2022-10-31T16:51:30;303.22;;;303.22;;
71174;SDS011;58876;51.994;4.472;2022-10-31T16:53:55;301.13;;;301.13;;
71174;SDS011;58876;51.994;4.472;2022-10-31T16:56:26;287.23;;;287.23;;